Disclaimer

Please do not use the information listed here in-flight or in-navigation, as they are not provided to us by the airports but are provided by volunteers, so they might be outdated.

Search


Regions


Airport information page

Radio informations:
ADRAR TWR - 119.7 MHz
ADRAR RDO - 8894 MHz

Airport informations:
Latitude: 27° 50' 15.32" N
Longitude: 000° 11' 11.09" W
Elevation: 919 feet - 280 meters
Operating hours: Remarks
Operating agency: Civil government, landing fees and diplomatic clearance may be required
Timezone: UTC+1 - Dates notified by NOTAM
Fuel: Jet A1, without icing nhibitor.

Runway information:
04/22 - 9843 x 148 feet< - >3000 x 45 meters

Recent METARs:
DAUA 130400Z 02009KT CAVOK 14/04 Q1013
DAUA 130400Z 02009KT CAVOK 14/04 Q1013
DAUA 130500Z 10010KT CAVOK 12/03 Q1014

Airport on the map: